Time;durP1;ratioP1;P1;durP2;ratioP2;P2;SDS_P1;SDS_P2;PMS_P1;PMS_P2;Temp;Humidity;BMP_temperature;BMP_pressure;BME280_temperature;BME280_humidity;BME280_pressure;Samples;Min_cycle;Max_cycle;Signal;HPM_P1;HPM_P2
2023/07/17 00:00:12;;;;;;;5.60;2.80;;;;;;;17.90;65.81;100797.99;106313;1256;73099;-71
2023/07/17 00:02:40;;;;;;;4.90;2.80;;;;;;;17.87;66.09;100796.23;106379;1256;62111;-72
2023/07/17 00:05:09;;;;;;;5.60;2.80;;;;;;;17.84;66.19;100796.13;106316;1256;61160;-71
2023/07/17 00:07:41;;;;;;;5.20;2.70;;;;;;;17.82;66.19;100796.20;106204;1257;74373;-71
2023/07/17 00:10:09;;;;;;;7.40;3.40;;;;;;;17.81;66.27;100794.67;106115;1260;70181;-71
2023/07/17 00:12:38;;;;;;;5.90;2.80;;;;;;;17.82;66.28;100793.05;106217;1262;70982;-71
2023/07/17 00:15:05;;;;;;;5.90;2.80;;;;;;;17.81;66.27;100794.48;106224;1256;61941;-70
2023/07/17 00:17:34;;;;;;;5.40;3.00;;;;;;;17.82;66.41;100799.10;106851;1256;61273;-71
2023/07/17 00:20:06;;;;;;;5.20;2.50;;;;;;;17.81;66.42;100798.64;106217;1256;74711;-71
2023/07/17 00:22:34;;;;;;;6.30;3.10;;;;;;;17.81;66.31;100799.71;106386;1256;69771;-72
2023/07/17 00:25:03;;;;;;;5.70;2.90;;;;;;;17.81;66.38;100802.36;106245;1259;71486;-70
2023/07/17 00:27:31;;;;;;;8.00;3.00;;;;;;;17.82;66.47;100798.02;106328;1256;61353;-70
2023/07/17 00:29:58;;;;;;;7.60;3.10;;;;;;;17.81;66.42;100802.90;106189;1256;61616;-72
2023/07/17 00:32:25;;;;;;;5.90;2.70;;;;;;;17.80;66.49;100804.02;106303;1259;74661;-72
2023/07/17 00:34:51;;;;;;;6.70;2.90;;;;;;;17.77;66.54;100805.07;106245;1256;71212;-72
2023/07/17 00:37:19;;;;;;;6.20;2.90;;;;;;;17.75;66.85;100810.28;106614;1256;70607;-72
2023/07/17 00:39:46;;;;;;;6.60;2.90;;;;;;;17.70;67.02;100811.77;106190;1257;61765;-72
2023/07/17 00:42:12;;;;;;;5.30;3.00;;;;;;;17.65;67.32;100816.27;106279;1257;61267;-72
2023/07/17 00:44:39;;;;;;;5.10;2.90;;;;;;;17.61;67.32;100815.08;106182;1256;73815;-72
2023/07/17 00:47:08;;;;;;;5.00;3.10;;;;;;;17.58;67.54;100816.30;106243;1259;68946;-72
2023/07/17 00:49:35;;;;;;;6.10;3.10;;;;;;;17.53;67.99;100816.03;106188;1257;72536;-72
2023/07/17 00:52:05;;;;;;;5.40;3.10;;;;;;;17.49;68.19;100820.52;106085;1259;61693;-72
2023/07/17 00:54:32;;;;;;;7.60;3.50;;;;;;;17.46;68.46;100831.72;106723;1256;61362;-71
2023/07/17 00:57:03;;;;;;;7.50;3.30;;;;;;;17.44;68.49;100829.67;106289;1258;73469;-72
2023/07/17 00:59:31;;;;;;;5.00;3.00;;;;;;;17.42;68.64;100830.89;106265;1257;69766;-70
2023/07/17 01:01:58;;;;;;;5.90;3.10;;;;;;;17.39;68.65;100831.73;106257;1256;72634;-71
2023/07/17 01:04:25;;;;;;;5.90;3.10;;;;;;;17.39;68.74;100828.06;106351;1256;62464;-70
2023/07/17 01:06:52;;;;;;;5.40;3.00;;;;;;;17.37;68.94;100823.49;106207;1260;61165;-72
2023/07/17 01:09:20;;;;;;;6.40;3.30;;;;;;;17.35;69.16;100823.64;106407;1259;75748;-71
2023/07/17 01:11:47;;;;;;;4.80;2.90;;;;;;;17.32;69.21;100821.41;108979;1256;69941;-72
2023/07/17 01:14:18;;;;;;;5.60;3.00;;;;;;;17.32;69.16;100819.69;108477;1256;72749;-72
2023/07/17 01:16:48;;;;;;;6.60;3.10;;;;;;;17.31;69.26;100822.38;107871;1255;61406;-71
2023/07/17 01:19:16;;;;;;;5.50;3.20;;;;;;;17.29;69.29;100821.40;106484;1256;61168;-72
2023/07/17 01:21:51;;;;;;;5.70;3.30;;;;;;;17.28;69.37;100821.58;107723;1256;74707;-72
2023/07/17 01:24:19;;;;;;;6.70;3.00;;;;;;;17.26;69.67;100822.79;106169;1256;70070;-71
2023/07/17 01:26:46;;;;;;;5.30;2.90;;;;;;;17.23;69.72;100829.06;106183;1256;71462;-70
2023/07/17 01:29:13;;;;;;;6.90;3.20;;;;;;;17.21;69.85;100822.48;106422;1258;62676;-72
2023/07/17 01:31:41;;;;;;;7.70;3.00;;;;;;;17.20;70.20;100819.33;106628;1256;61286;-71
2023/07/17 01:34:09;;;;;;;6.00;3.10;;;;;;;17.19;70.28;100824.05;106343;1257;74841;-71
2023/07/17 01:36:35;;;;;;;8.50;4.00;;;;;;;17.19;70.37;100818.13;106122;1256;70013;-71
2023/07/17 01:39:03;;;;;;;5.40;3.00;;;;;;;17.20;70.50;100818.95;105845;1259;717232;-72
2023/07/17 01:41:29;;;;;;;5.10;2.90;;;;;;;17.21;70.44;100817.78;106347;1256;61228;-71
2023/07/17 01:43:56;;;;;;;5.30;3.00;;;;;;;17.22;70.44;100816.16;106176;1256;61376;-71
2023/07/17 01:46:23;;;;;;;5.60;3.20;;;;;;;17.22;70.51;100814.36;106342;1262;72904;-70
2023/07/17 01:48:50;;;;;;;4.90;3.00;;;;;;;17.23;70.57;100811.95;106295;1257;70236;-71
2023/07/17 01:51:17;;;;;;;7.30;3.10;;;;;;;17.23;70.61;100810.98;106328;1256;72088;-70
2023/07/17 01:53:45;;;;;;;4.80;2.80;;;;;;;17.23;70.72;100806.77;106369;1256;61363;-72
2023/07/17 01:56:11;;;;;;;5.50;3.20;;;;;;;17.23;70.82;100804.45;106296;1261;59378;-71
2023/07/17 01:58:38;;;;;;;7.00;3.30;;;;;;;17.22;71.03;100799.75;105995;1257;73643;-71
2023/07/17 02:01:07;;;;;;;6.90;3.50;;;;;;;17.21;71.16;100802.52;106049;1257;70907;-72
2023/07/17 02:03:36;;;;;;;6.90;3.70;;;;;;;17.19;71.53;100801.17;106095;1257;72760;-71
2023/07/17 02:06:03;;;;;;;8.50;4.10;;;;;;;17.16;71.70;100800.70;106580;1256;60475;-72
2023/07/17 02:08:30;;;;;;;5.40;3.20;;;;;;;17.15;71.82;100802.31;106038;1256;61690;-71
2023/07/17 02:10:56;;;;;;;5.50;3.30;;;;;;;17.11;71.96;100809.22;106090;1262;73673;-72
2023/07/17 02:13:23;;;;;;;5.50;3.00;;;;;;;17.08;71.99;100812.86;106218;1259;71235;-72
2023/07/17 02:15:50;;;;;;;5.50;3.30;;;;;;;17.04;72.14;100816.10;105972;1256;72757;-72
2023/07/17 02:18:17;;;;;;;6.20;3.10;;;;;;;17.01;72.43;100820.00;106351;1257;61320;-72
2023/07/17 02:20:44;;;;;;;7.40;3.70;;;;;;;16.96;72.52;100815.81;106124;1257;61318;-72
2023/07/17 02:23:11;;;;;;;5.20;3.10;;;;;;;16.93;72.51;100817.39;106353;1257;73141;-72
2023/07/17 02:25:37;;;;;;;6.10;3.40;;;;;;;16.90;72.66;100818.32;106639;1257;70986;-72
2023/07/17 02:28:04;;;;;;;7.50;3.50;;;;;;;16.85;72.93;100814.80;106341;1261;72628;-72
2023/07/17 02:30:31;;;;;;;6.00;3.20;;;;;;;16.82;73.16;100811.23;105994;1256;61336;-71
2023/07/17 02:32:58;;;;;;;8.10;3.30;;;;;;;16.78;73.47;100807.92;106154;1256;61217;-71
2023/07/17 02:35:25;;;;;;;7.10;3.20;;;;;;;16.76;73.65;100811.15;106057;1257;74401;-71
2023/07/17 02:37:52;;;;;;;5.80;3.20;;;;;;;16.73;73.94;100810.63;106203;1260;70438;-72
2023/07/17 02:40:19;;;;;;;6.20;3.60;;;;;;;16.70;73.85;100812.36;106290;1257;72180;-71
2023/07/17 02:42:45;;;;;;;6.30;3.90;;;;;;;16.68;74.10;100809.98;106437;1259;61275;-71
2023/07/17 02:45:13;;;;;;;5.30;3.10;;;;;;;16.66;74.16;100810.92;106591;1256;61658;-72
2023/07/17 02:47:40;;;;;;;6.30;3.60;;;;;;;16.63;74.38;100810.73;106286;1256;73720;-71
2023/07/17 02:50:07;;;;;;;6.10;3.60;;;;;;;16.58;74.21;100808.65;106349;1256;69863;-72
2023/07/17 02:52:35;;;;;;;6.30;3.30;;;;;;;16.55;74.35;100808.98;106232;1257;70876;-71
2023/07/17 02:55:04;;;;;;;6.50;3.40;;;;;;;16.50;74.29;100812.80;106182;1257;61638;-72
2023/07/17 02:57:35;;;;;;;6.00;3.50;;;;;;;16.48;74.34;100820.52;106265;1257;61270;-71
2023/07/17 03:00:08;;;;;;;6.60;3.60;;;;;;;16.43;74.40;100822.13;106505;1257;73716;-71
2023/07/17 03:02:41;;;;;;;6.40;3.40;;;;;;;16.41;74.49;100828.94;106227;1257;71486;-70
2023/07/17 03:05:08;;;;;;;5.80;3.30;;;;;;;16.36;74.63;100834.10;106395;1256;72609;-71
2023/07/17 03:07:38;;;;;;;7.10;3.60;;;;;;;16.33;74.81;100833.66;106138;1263;61742;-71
2023/07/17 03:10:06;;;;;;;5.40;3.20;;;;;;;16.28;74.89;100833.86;106322;1256;61269;-72
2023/07/17 03:12:34;;;;;;;6.40;3.50;;;;;;;16.24;75.17;100828.30;106349;1260;74362;-72
2023/07/17 03:15:01;;;;;;;5.50;3.50;;;;;;;16.21;75.29;100828.07;106156;1256;69670;-72
2023/07/17 03:17:28;;;;;;;6.50;3.50;;;;;;;16.19;75.16;100830.09;106084;1256;71232;-73
2023/07/17 03:19:55;;;;;;;6.40;3.50;;;;;;;16.17;75.08;100831.30;106753;1256;61935;-72
2023/07/17 03:22:21;;;;;;;6.00;3.50;;;;;;;16.16;74.99;100829.12;106137;1256;61262;-72
2023/07/17 03:24:49;;;;;;;6.00;3.10;;;;;;;16.15;74.98;100835.84;106220;1261;74832;-73
2023/07/17 03:27:16;;;;;;;5.80;3.20;;;;;;;16.15;75.17;100854.04;106133;1256;71605;-72
2023/07/17 03:29:46;;;;;;;6.60;3.40;;;;;;;16.12;75.88;100875.52;106117;1256;71425;-73
2023/07/17 03:32:13;;;;;;;7.30;3.30;;;;;;;16.06;76.19;100890.27;106155;1256;61477;-71
2023/07/17 03:34:39;;;;;;;5.90;3.30;;;;;;;16.04;76.20;100881.61;106162;1262;61254;-71
2023/07/17 03:37:06;;;;;;;6.90;3.50;;;;;;;16.05;75.97;100878.20;106742;1256;74089;-71
2023/07/17 03:39:36;;;;;;;5.90;3.50;;;;;;;16.09;75.84;100876.27;106068;1256;71220;-71
2023/07/17 03:42:06;;;;;;;6.30;3.40;;;;;;;16.13;75.71;100872.64;106327;1259;72736;-72
2023/07/17 03:44:33;;;;;;;5.10;3.30;;;;;;;16.19;75.62;100878.89;106219;1257;62007;-72
2023/07/17 03:46:59;;;;;;;6.50;3.40;;;;;;;16.23;75.57;100876.09;106297;1257;61757;-72
2023/07/17 03:49:26;;;;;;;6.10;3.20;;;;;;;16.29;75.11;100880.69;106262;1260;73975;-72
2023/07/17 03:51:53;;;;;;;6.30;3.00;;;;;;;16.39;74.70;100883.08;106248;1256;68967;-73
2023/07/17 03:54:20;;;;;;;6.20;2.90;;;;;;;16.51;74.00;100893.63;106176;1259;72412;-72
2023/07/17 03:56:47;;;;;;;7.60;3.10;;;;;;;16.63;73.72;100894.42;106585;1262;61379;-73
2023/07/17 03:59:14;;;;;;;6.30;3.50;;;;;;;16.74;73.62;100886.20;106339;1256;61232;-72
2023/07/17 04:01:41;;;;;;;6.80;3.20;;;;;;;16.83;73.49;100877.61;106160;1259;73586;-71
2023/07/17 04:04:08;;;;;;;8.10;3.40;;;;;;;16.92;73.34;100872.15;106330;1256;71202;-71
2023/07/17 04:06:35;;;;;;;7.70;3.10;;;;;;;17.01;73.14;100872.70;106091;1255;72373;-71
2023/07/17 04:09:02;;;;;;;8.60;3.50;;;;;;;17.09;72.88;100871.70;106149;1258;62069;-72
2023/07/17 04:11:30;;;;;;;7.10;3.10;;;;;;;17.18;72.65;100874.92;106222;1257;61168;-71
2023/07/17 04:13:57;;;;;;;8.40;3.50;;;;;;;17.27;72.31;100874.29;106592;1259;74726;-71
2023/07/17 04:16:27;;;;;;;10.10;3.30;;;;;;;17.35;71.98;100879.58;106222;1259;70095;-72
2023/07/17 04:18:54;;;;;;;7.90;3.10;;;;;;;17.44;71.18;100882.15;106221;1256;71929;-72
2023/07/17 04:21:21;;;;;;;8.00;3.10;;;;;;;17.54;70.64;100880.11;106203;1255;63219;-71
2023/07/17 04:23:50;;;;;;;7.00;3.00;;;;;;;17.64;70.39;100880.55;106240;1259;61714;-72
2023/07/17 04:26:18;;;;;;;10.60;3.10;;;;;;;17.73;69.86;100882.90;106371;1257;73540;-73
2023/07/17 04:28:45;;;;;;;7.80;3.20;;;;;;;17.82;69.77;100888.16;106764;1259;71389;-72
2023/07/17 04:31:11;;;;;;;7.30;2.80;;;;;;;17.90;69.27;100896.20;106334;1257;72582;-71
2023/07/17 04:33:38;;;;;;;9.70;3.00;;;;;;;17.96;69.20;100901.88;106132;1258;61282;-71
2023/07/17 04:36:07;;;;;;;12.10;2.60;;;;;;;18.05;68.90;100911.89;106312;1260;61350;-71
2023/07/17 04:38:34;;;;;;;12.10;2.90;;;;;;;18.13;68.67;100915.91;106304;1257;75532;-73
2023/07/17 04:41:01;;;;;;;9.30;3.10;;;;;;;18.22;68.83;100908.15;106303;1256;71273;-71
2023/07/17 04:43:28;;;;;;;6.90;2.60;;;;;;;18.30;68.35;100909.04;106175;1257;71302;-70
2023/07/17 04:45:54;;;;;;;7.80;3.00;;;;;;;18.38;68.34;100916.18;106347;1257;61321;-71
2023/07/17 04:48:21;;;;;;;7.70;2.80;;;;;;;18.42;68.71;100906.22;106702;1256;61295;-73
2023/07/17 04:50:48;;;;;;;7.00;3.30;;;;;;;18.42;69.17;100895.95;106103;1261;73246;-74
2023/07/17 04:53:15;;;;;;;10.80;3.70;;;;;;;18.39;70.31;100909.94;106339;1260;70031;-71
2023/07/17 04:55:42;;;;;;;6.40;3.20;;;;;;;18.32;71.21;100919.95;106004;1258;73829;-72
2023/07/17 04:58:10;;;;;;;6.20;3.60;;;;;;;18.24;71.85;100913.71;106302;1256;61359;-71
2023/07/17 05:00:37;;;;;;;6.60;3.40;;;;;;;18.14;73.00;100914.21;106197;1257;61317;-72
2023/07/17 05:03:03;;;;;;;7.70;3.80;;;;;;;18.07;73.37;100915.64;106401;1256;74675;-72
2023/07/17 05:05:31;;;;;;;7.90;3.30;;;;;;;18.00;74.02;100912.41;106320;1257;71195;-73
2023/07/17 05:07:58;;;;;;;7.00;3.30;;;;;;;17.94;74.56;100910.13;106740;1256;72741;-71
2023/07/17 05:10:25;;;;;;;8.20;3.40;;;;;;;17.92;74.55;100909.44;106018;1256;61353;-73
2023/07/17 05:12:53;;;;;;;8.20;3.80;;;;;;;17.92;74.15;100913.84;106163;1258;61413;-73
2023/07/17 05:15:19;;;;;;;7.60;3.80;;;;;;;17.94;73.68;100909.69;106597;1256;73258;-71
2023/07/17 05:17:46;;;;;;;5.20;3.20;;;;;;;17.98;73.88;100910.91;106069;1257;61316;-72
2023/07/17 05:20:13;;;;;;;8.60;3.30;;;;;;;18.02;73.57;100906.84;106325;1261;71461;-71
2023/07/17 05:22:39;;;;;;;7.10;3.00;;;;;;;18.07;73.62;100906.66;106174;1260;61166;-71
2023/07/17 05:25:06;;;;;;;7.90;3.00;;;;;;;18.12;73.03;100908.23;106270;1257;61333;-72
2023/07/17 05:27:34;;;;;;;8.60;3.20;;;;;;;18.16;72.35;100904.45;106486;1261;74366;-72
2023/07/17 05:30:01;;;;;;;7.30;3.40;;;;;;;18.20;71.54;100905.91;106270;1256;70490;-76
2023/07/17 05:32:28;;;;;;;6.10;3.10;;;;;;;18.24;71.86;100904.48;105763;1256;71511;-77
2023/07/17 05:34:56;;;;;;;8.10;3.40;;;;;;;18.29;70.65;100904.42;106196;1261;61279;-76
2023/07/17 05:37:23;;;;;;;5.10;2.80;;;;;;;18.38;71.06;100900.61;106285;1260;62658;-73
2023/07/17 05:39:52;;;;;;;6.30;2.70;;;;;;;18.47;70.76;100893.65;106140;1261;73368;-75
2023/07/17 05:42:19;;;;;;;5.10;2.80;;;;;;;18.56;70.04;100892.57;106104;1262;71378;-72
2023/07/17 05:44:46;;;;;;;7.10;3.20;;;;;;;18.62;69.87;100888.25;106119;1260;71572;-73
2023/07/17 05:47:13;;;;;;;4.80;2.70;;;;;;;18.69;69.81;100891.39;106755;1258;62683;-72
2023/07/17 05:49:40;;;;;;;6.10;3.10;;;;;;;18.74;69.61;100898.59;105965;1256;61189;-73
2023/07/17 05:52:07;;;;;;;5.00;2.60;;;;;;;18.82;69.86;100904.27;105891;1260;74686;-73
2023/07/17 05:54:34;;;;;;;5.40;3.00;;;;;;;18.89;69.11;100907.86;106002;1258;70488;-73
2023/07/17 05:57:01;;;;;;;5.60;2.70;;;;;;;18.89;68.32;100905.91;105767;1257;71661;-74
2023/07/17 05:59:28;;;;;;;6.60;3.10;;;;;;;18.89;68.18;100912.67;105824;1257;62191;-73
2023/07/17 06:01:54;;;;;;;5.10;2.90;;;;;;;18.92;68.51;100910.31;106267;1257;61658;-73
2023/07/17 06:04:21;;;;;;;6.10;2.70;;;;;;;18.98;68.15;100916.83;106312;1256;73492;-72
2023/07/17 06:06:49;;;;;;;4.90;2.60;;;;;;;19.00;67.74;100921.92;106249;1257;71267;-74
2023/07/17 06:09:16;;;;;;;5.70;2.80;;;;;;;19.03;67.66;100922.88;105879;1257;72771;-73
2023/07/17 06:11:43;;;;;;;5.40;2.80;;;;;;;19.04;67.21;100925.93;106063;1257;61452;-76
2023/07/17 06:14:11;;;;;;;5.10;2.80;;;;;;;19.08;67.39;100933.67;106168;1256;61266;-73
2023/07/17 06:16:38;;;;;;;6.70;2.80;;;;;;;19.10;66.62;100935.71;106172;1260;74850;-74
2023/07/17 06:19:05;;;;;;;5.60;2.90;;;;;;;19.10;66.64;100932.49;106228;1258;70934;-74
2023/07/17 06:21:33;;;;;;;6.90;2.90;;;;;;;19.17;66.87;100933.38;106471;1261;73055;-73
2023/07/17 06:23:59;;;;;;;5.90;2.90;;;;;;;19.25;66.76;100942.59;106219;1258;62093;-73
2023/07/17 06:26:26;;;;;;;5.20;2.80;;;;;;;19.30;66.61;100941.46;106319;1260;61189;-74
2023/07/17 06:28:53;;;;;;;8.70;3.10;;;;;;;19.36;66.00;100943.07;106237;1260;72531;-74
2023/07/17 06:31:20;;;;;;;6.80;2.70;;;;;;;19.41;65.74;100938.88;106368;1260;70645;-73
2023/07/17 06:33:47;;;;;;;5.80;2.70;;;;;;;19.44;65.48;100941.55;106536;1257;71704;-73
2023/07/17 06:36:14;;;;;;;5.70;2.60;;;;;;;19.48;65.29;100940.85;106664;1257;60569;-73
2023/07/17 06:38:41;;;;;;;7.00;3.00;;;;;;;19.48;64.99;100944.73;106653;1260;61263;-73
2023/07/17 06:41:07;;;;;;;7.70;2.80;;;;;;;19.48;64.58;100943.70;108063;1260;73418;-73
2023/07/17 06:43:34;;;;;;;4.90;2.30;;;;;;;19.47;64.66;100946.65;106174;1262;70600;-73
2023/07/17 06:46:04;;;;;;;6.00;2.60;;;;;;;19.51;64.63;100945.89;106398;1260;71749;-72
2023/07/17 06:48:31;;;;;;;4.70;2.90;;;;;;;19.54;64.28;100952.96;106047;1256;61700;-72
2023/07/17 06:50:58;;;;;;;5.70;2.80;;;;;;;19.58;64.26;100953.33;106193;1262;61253;-72
2023/07/17 06:53:25;;;;;;;5.30;2.50;;;;;;;19.61;63.92;100951.14;106293;1259;74893;-73
2023/07/17 06:55:56;;;;;;;6.50;2.80;;;;;;;19.62;63.60;100955.18;106405;1256;71424;-74
2023/07/17 06:58:24;;;;;;;6.50;2.90;;;;;;;19.67;64.13;100951.85;106348;1258;72444;-73
2023/07/17 07:01:08;;;;;;;4.40;2.40;;;;;;;19.70;64.16;100954.84;106379;1257;61349;-73
2023/07/17 07:03:35;;;;;;;5.80;2.40;;;;;;;19.60;63.81;100953.60;106403;1260;61138;-72
2023/07/17 07:06:04;;;;;;;4.60;2.40;;;;;;;19.52;64.11;100954.85;106029;1263;73092;-72
2023/07/17 07:08:31;;;;;;;7.60;2.40;;;;;;;19.42;64.20;100960.70;106248;1262;71178;-72
2023/07/17 07:11:00;;;;;;;4.90;2.60;;;;;;;19.34;64.42;100962.55;106150;1257;71502;-72
2023/07/17 07:13:28;;;;;;;4.50;2.40;;;;;;;19.27;64.80;100965.24;106153;1256;61827;-73
2023/07/17 07:15:55;;;;;;;5.50;2.70;;;;;;;19.17;64.64;100967.71;106768;1261;61038;-72
2023/07/17 07:18:22;;;;;;;4.90;2.50;;;;;;;19.09;64.80;100967.15;106097;1261;73192;-74
2023/07/17 07:20:51;;;;;;;4.80;2.40;;;;;;;19.04;64.95;100969.48;106626;1257;71146;-73
2023/07/17 07:23:19;;;;;;;5.20;2.20;;;;;;;19.07;65.27;100970.16;106158;1263;70744;-72
2023/07/17 07:25:46;;;;;;;5.00;2.10;;;;;;;19.20;65.35;100972.86;106271;1261;61344;-72
2023/07/17 07:28:14;;;;;;;3.70;2.00;;;;;;;19.33;65.11;100974.39;106322;1257;61158;-73
2023/07/17 07:30:41;;;;;;;4.30;2.20;;;;;;;19.45;64.86;100978.71;106135;1263;72652;-73
2023/07/17 07:33:08;;;;;;;5.80;2.10;;;;;;;19.58;64.77;100981.32;106712;1261;71281;-73
2023/07/17 07:35:35;;;;;;;4.40;2.20;;;;;;;19.67;64.17;100982.85;106698;1260;70956;-73
2023/07/17 07:38:02;;;;;;;4.10;2.20;;;;;;;19.72;63.84;100989.31;106447;1260;61277;-72
2023/07/17 07:40:28;;;;;;;3.20;1.80;;;;;;;19.76;63.80;100985.48;106072;1257;61315;-71
2023/07/17 07:42:55;;;;;;;5.70;2.20;;;;;;;19.77;63.14;100983.95;106368;1258;74667;-73
2023/07/17 07:45:25;;;;;;;7.90;2.60;;;;;;;19.81;63.04;100986.82;106303;1260;73188;-72
2023/07/17 07:47:52;;;;;;;3.10;1.80;;;;;;;19.89;63.04;100989.23;106204;1257;71750;-74
2023/07/17 07:50:19;;;;;;;3.80;2.00;;;;;;;19.91;62.05;100992.47;106750;1257;61159;-71
2023/07/17 07:52:46;;;;;;;3.10;1.90;;;;;;;19.97;62.33;100991.68;106369;1259;61254;-72
2023/07/17 07:55:21;;;;;;;4.40;1.80;;;;;;;20.07;62.05;100990.38;106348;1261;74833;-73
2023/07/17 07:57:49;;;;;;;4.90;1.90;;;;;;;20.15;60.53;100994.69;106332;1255;70552;-74
2023/07/17 08:00:16;;;;;;;4.00;1.70;;;;;;;20.22;60.12;101001.33;106624;1260;72686;-72
2023/07/17 08:02:43;;;;;;;4.70;1.80;;;;;;;20.32;59.83;100996.23;106417;1257;61164;-73
2023/07/17 08:05:10;;;;;;;5.50;1.80;;;;;;;20.44;59.22;100992.31;106232;1258;61273;-71
2023/07/17 08:07:36;;;;;;;3.70;1.70;;;;;;;20.55;58.25;101001.20;106633;1258;74593;-72
2023/07/17 08:10:03;;;;;;;4.70;1.80;;;;;;;20.59;57.85;100993.81;106350;1260;69881;-72
2023/07/17 08:12:31;;;;;;;4.00;1.70;;;;;;;20.67;58.12;100991.80;106184;1260;73392;-72
2023/07/17 08:14:58;;;;;;;5.10;1.70;;;;;;;20.76;58.20;100994.64;106736;1261;61237;-71
2023/07/17 08:17:24;;;;;;;4.00;1.80;;;;;;;20.87;57.90;100993.95;106463;1259;59407;-72
2023/07/17 08:19:51;;;;;;;3.10;1.50;;;;;;;21.03;57.06;100991.06;106314;1257;73524;-72
2023/07/17 08:22:18;;;;;;;3.10;1.40;;;;;;;21.17;55.56;100992.16;106254;1258;69998;-72
2023/07/17 08:24:45;;;;;;;3.20;1.50;;;;;;;21.23;54.78;100986.41;106734;1257;71630;-73
2023/07/17 08:27:12;;;;;;;4.60;1.70;;;;;;;21.30;54.26;100987.09;106283;1256;61345;-73
2023/07/17 08:29:39;;;;;;;4.00;1.70;;;;;;;21.40;53.37;100991.91;106448;1258;61258;-73
2023/07/17 08:32:06;;;;;;;3.10;1.50;;;;;;;21.50;52.54;100987.02;106410;1259;73847;-73
2023/07/17 08:34:33;;;;;;;3.70;1.40;;;;;;;21.53;51.23;100982.73;106198;1257;71228;-72
2023/07/17 08:36:59;;;;;;;3.40;1.50;;;;;;;21.56;50.41;100994.70;107025;1257;72802;-72
2023/07/17 08:39:26;;;;;;;2.70;1.30;;;;;;;21.65;49.54;100994.50;106614;1255;61429;-73
2023/07/17 08:41:53;;;;;;;3.40;1.50;;;;;;;21.73;49.36;100982.54;106715;1257;61173;-72
2023/07/17 08:44:21;;;;;;;3.80;1.60;;;;;;;21.83;47.91;100996.08;106388;1264;75175;-72
2023/07/17 08:46:51;;;;;;;3.90;1.40;;;;;;;21.92;47.05;100990.45;106484;1256;70118;-73
2023/07/17 08:49:19;;;;;;;2.90;1.40;;;;;;;22.04;46.30;100996.39;106339;1256;71556;-73
2023/07/17 08:51:47;;;;;;;2.70;1.50;;;;;;;22.12;45.91;100985.77;106179;1257;61443;-72
2023/07/17 08:54:15;;;;;;;4.00;1.60;;;;;;;22.26;45.60;100990.13;106094;1256;61263;-73
2023/07/17 08:57:00;;;;;;;4.60;1.40;;;;;;;22.28;44.83;100988.11;106454;1257;74117;-72
2023/07/17 08:59:28;;;;;;;3.10;1.50;;;;;;;22.23;45.41;100990.42;106550;1257;70046;-71
2023/07/17 09:01:55;;;;;;;3.10;1.50;;;;;;;22.25;45.87;100987.15;106724;1256;72846;-71
2023/07/17 09:04:23;;;;;;;4.70;1.60;;;;;;;22.28;45.37;100988.81;106348;1256;61358;-73
2023/07/17 09:06:50;;;;;;;2.80;1.30;;;;;;;22.39;45.58;100991.76;106391;1257;61728;-71
2023/07/17 09:09:19;;;;;;;4.80;1.80;;;;;;;22.42;45.07;100988.97;106472;1258;74365;-71
2023/07/17 09:11:46;;;;;;;4.60;1.70;;;;;;;22.47;45.51;100982.35;106177;1261;69849;-70
2023/07/17 09:14:12;;;;;;;3.60;1.30;;;;;;;22.67;45.57;100980.63;106450;1256;71438;-71
2023/07/17 09:16:40;;;;;;;3.90;1.70;;;;;;;22.71;43.85;100988.30;106178;1262;61363;-71
2023/07/17 09:19:07;;;;;;;2.70;1.50;;;;;;;22.65;44.10;100986.25;106282;1256;61353;-71
2023/07/17 09:21:34;;;;;;;4.10;1.70;;;;;;;22.59;43.74;100988.48;106753;1258;75181;-70
2023/07/17 09:24:00;;;;;;;3.10;1.20;;;;;;;22.58;43.99;100985.06;106358;1260;70785;-71
2023/07/17 09:26:29;;;;;;;3.10;1.30;;;;;;;22.55;43.30;100990.64;106561;1257;71684;-73
2023/07/17 09:28:57;;;;;;;3.00;1.40;;;;;;;22.49;44.30;100997.95;106488;1260;60665;-71
2023/07/17 09:31:25;;;;;;;3.20;1.50;;;;;;;22.49;44.17;101000.71;106697;1255;60460;-72
2023/07/17 09:33:53;;;;;;;4.90;1.70;;;;;;;22.60;43.37;100992.50;106384;1257;74676;-72
2023/07/17 09:36:21;;;;;;;4.00;1.60;;;;;;;22.67;43.10;100983.83;106193;1257;69227;-74
2023/07/17 09:38:55;;;;;;;3.90;1.60;;;;;;;22.84;43.23;100989.70;106481;1258;73142;-74
2023/07/17 09:41:23;;;;;;;3.30;1.50;;;;;;;23.00;42.65;100998.36;107125;1256;61397;-73
2023/07/17 09:44:04;;;;;;;3.50;1.60;;;;;;;23.24;42.09;100989.38;106177;1256;61237;-73
2023/07/17 09:46:36;;;;;;;2.90;1.60;;;;;;;23.37;40.77;100989.81;106292;1256;75189;-71
2023/07/17 09:49:04;;;;;;;3.60;1.80;;;;;;;23.52;40.91;100994.52;106551;1256;71273;-73
2023/07/17 09:51:32;;;;;;;2.90;1.60;;;;;;;23.54;41.40;100994.11;106463;1256;72180;-72
2023/07/17 09:54:05;;;;;;;3.70;1.40;;;;;;;23.44;40.81;100996.77;106208;1260;60441;-72
2023/07/17 09:56:33;;;;;;;3.00;1.60;;;;;;;23.36;41.17;100999.43;106456;1255;61282;-71
2023/07/17 09:59:14;;;;;;;2.90;1.30;;;;;;;23.37;41.44;101005.19;107079;1256;74358;-71
2023/07/17 10:01:45;;;;;;;3.20;1.40;;;;;;;23.22;41.03;101004.99;106528;1257;69704;-73
2023/07/17 10:04:16;;;;;;;3.70;1.70;;;;;;;23.14;41.89;101002.96;106381;1257;72133;-72
2023/07/17 10:06:46;;;;;;;5.10;1.50;;;;;;;23.30;42.20;100992.91;106458;1256;61743;-73
2023/07/17 10:09:18;;;;;;;3.80;1.60;;;;;;;23.39;42.06;100991.67;106082;1259;61261;-72
2023/07/17 10:11:44;;;;;;;3.00;1.60;;;;;;;23.43;41.36;100995.83;106763;1257;73561;-72
2023/07/17 10:14:13;;;;;;;3.70;1.80;;;;;;;23.49;40.86;101010.51;106987;1256;70235;-72
2023/07/17 10:16:42;;;;;;;3.40;1.80;;;;;;;23.44;40.95;101004.88;106817;1257;72760;-71
2023/07/17 10:19:09;;;;;;;2.80;1.50;;;;;;;23.51;41.08;101001.60;106287;1257;61280;-71
2023/07/17 10:21:54;;;;;;;3.40;1.60;;;;;;;23.58;40.91;101003.91;107084;1256;61283;-71
2023/07/17 10:24:25;;;;;;;4.60;1.80;;;;;;;23.70;41.07;101002.30;106458;1255;72295;-72
2023/07/17 10:26:52;;;;;;;4.00;1.50;;;;;;;23.76;40.27;101005.24;106535;1258;70348;-73
2023/07/17 10:29:32;;;;;;;4.40;1.50;;;;;;;23.63;40.35;101005.03;106352;1258;70479;-74
2023/07/17 10:32:07;;;;;;;3.70;1.70;;;;;;;23.52;40.48;101010.01;106977;1258;61334;-71
2023/07/17 10:34:51;;;;;;;4.40;1.80;;;;;;;23.62;40.21;101004.75;108034;1257;59339;-71
2023/07/17 10:37:30;;;;;;;3.60;2.00;;;;;;;23.92;39.53;101002.38;106279;1257;74728;-73
2023/07/17 10:40:07;;;;;;;4.60;2.00;;;;;;;24.17;38.42;101013.28;106386;1257;72177;-73
2023/07/17 10:42:34;;;;;;;4.30;2.00;;;;;;;24.43;38.22;101014.41;106649;1257;71572;-74
2023/07/17 10:45:11;;;;;;;3.10;1.60;;;;;;;24.41;37.21;101010.11;106148;1262;61545;-70
2023/07/17 10:47:38;;;;;;;4.90;2.20;;;;;;;24.45;37.02;101008.86;106084;1257;61352;-71
2023/07/17 10:50:05;;;;;;;3.80;1.60;;;;;;;24.57;36.99;101005.50;106231;1260;73297;-72
2023/07/17 10:52:33;;;;;;;3.90;1.70;;;;;;;24.71;37.45;101012.36;107628;1256;71199;-74
2023/07/17 10:55:05;;;;;;;4.10;1.80;;;;;;;24.49;37.06;101012.52;106614;1257;71545;-72
2023/07/17 10:57:32;;;;;;;3.20;1.80;;;;;;;24.25;37.25;101005.86;106153;1256;61280;-74
2023/07/17 11:00:01;;;;;;;3.60;2.20;;;;;;;24.10;37.77;101004.92;106549;1256;61253;-72
2023/07/17 11:02:27;;;;;;;3.60;1.80;;;;;;;24.02;38.30;101015.97;106613;1257;72684;-73
2023/07/17 11:04:57;;;;;;;5.00;1.70;;;;;;;23.91;38.18;101014.02;106178;1260;70006;-75
2023/07/17 11:07:24;;;;;;;3.90;1.70;;;;;;;23.85;38.24;101028.81;106289;1263;71139;-74
2023/07/17 11:09:51;;;;;;;5.00;2.20;;;;;;;23.76;38.06;101027.35;107283;1256;61243;-70
2023/07/17 11:12:17;;;;;;;3.50;1.90;;;;;;;23.65;38.44;101020.13;106666;1256;61250;-73
2023/07/17 11:14:44;;;;;;;4.40;1.90;;;;;;;23.64;39.02;101019.58;106394;1263;73541;-72
2023/07/17 11:17:13;;;;;;;3.50;1.80;;;;;;;23.70;38.88;101013.89;106836;1256;69927;-71
2023/07/17 11:19:40;;;;;;;4.40;2.10;;;;;;;23.76;38.56;101030.65;106197;1257;72634;-71